Rolandia, Brazil
Current Conditions -  °F | °C
As of 12:00 PM on Thursday 23 Oct 2014 (Local Time) from SBLO Reporting Station
Clear Clear  
Wind Chill: 81°   Ceiling: Unl
Heat Index: 81°   Visibility: 6mi
Dew Point: 61°   Wind: 9mph
Humidity: 51%   Direction: 60°ENE
Pressure: 30.12"   Gusts: NA
Location:  23.31°S, 51.38°W
Report Text: SBLO 231400Z 06008KT CAVOK 27/16 Q1020
Loading
Personal Weather Stations






























Interactive Weather Map
Tropical Storm Tracking
New forecast layout! Learn more

10-Day Weather Forecast

Advertisements
Track Severe Weather on mobile